createdAt,value
2019-05-23T00:01:46.452Z,11.53
2019-05-23T00:04:25.774Z,11.52
2019-05-23T00:07:00.713Z,11.57
2019-05-23T00:09:33.585Z,11.49
2019-05-23T00:12:31.303Z,11.50
2019-05-23T00:15:10.266Z,11.53
2019-05-23T00:17:45.901Z,11.48
2019-05-23T00:20:22.104Z,11.43
2019-05-23T00:22:54.595Z,11.49
2019-05-23T00:25:30.766Z,11.51
2019-05-23T00:28:06.207Z,11.46
2019-05-23T00:30:52.391Z,11.51
2019-05-23T00:33:28.147Z,11.44
2019-05-23T00:36:02.273Z,11.49
2019-05-23T00:38:35.273Z,11.43
2019-05-23T00:41:07.108Z,11.43
2019-05-23T00:43:42.638Z,11.39
2019-05-23T00:46:19.333Z,11.41
2019-05-23T00:48:52.156Z,11.43
2019-05-23T00:51:26.003Z,11.42
2019-05-23T00:53:59.942Z,11.41
2019-05-23T00:56:36.223Z,11.37
2019-05-23T00:59:08.045Z,11.30
2019-05-23T01:01:41.668Z,11.24
2019-05-23T01:04:13.169Z,11.31
2019-05-23T01:06:46.355Z,11.28
2019-05-23T01:09:20.552Z,11.26
2019-05-23T01:11:52.105Z,11.25
2019-05-23T01:14:24.876Z,11.32
2019-05-23T01:16:59.077Z,11.27
2019-05-23T01:19:32.408Z,11.28
2019-05-23T01:22:10.123Z,11.28
2019-05-23T01:24:44.883Z,11.24
2019-05-23T01:27:22.098Z,11.20
2019-05-23T01:29:56.232Z,11.15
2019-05-23T01:32:45.292Z,11.10
2019-05-23T01:35:20.893Z,11.22
2019-05-23T01:37:53.690Z,11.22
2019-05-23T01:40:29.014Z,11.18
2019-05-23T01:43:02.443Z,11.27
2019-05-23T01:45:35.725Z,11.27
2019-05-23T01:48:07.139Z,11.22
2019-05-23T01:50:40.504Z,11.18
2019-05-23T01:53:13.691Z,11.16
2019-05-23T01:55:47.907Z,11.09
2019-05-23T01:58:22.007Z,11.05
2019-05-23T02:00:56.090Z,11.04
2019-05-23T02:03:28.749Z,11.00
2019-05-23T02:06:02.322Z,11.01
2019-05-23T02:08:35.305Z,11.05
2019-05-23T02:11:08.710Z,11.01
2019-05-23T02:13:42.208Z,10.98
2019-05-23T02:16:14.909Z,10.94
2019-05-23T02:18:46.608Z,10.94
2019-05-23T02:21:19.518Z,10.87
2019-05-23T02:23:52.432Z,10.88
2019-05-23T02:26:26.979Z,10.95
2019-05-23T02:28:58.947Z,10.94
2019-05-23T02:31:32.987Z,10.96
2019-05-23T02:34:05.473Z,10.89
2019-05-23T02:36:37.600Z,10.71
2019-05-23T02:39:29.196Z,10.65
2019-05-23T02:42:10.870Z,10.68
2019-05-23T02:44:44.374Z,10.69
2019-05-23T02:47:34.154Z,10.65
2019-05-23T02:50:09.985Z,10.67
2019-05-23T02:52:46.357Z,10.57
2019-05-23T02:55:25.660Z,10.60
2019-05-23T02:58:05.385Z,10.46
2019-05-23T03:00:59.387Z,10.48
2019-05-23T03:03:35.437Z,10.48
2019-05-23T03:06:15.182Z,10.51
2019-05-23T03:08:48.068Z,10.47
2019-05-23T03:11:39.054Z,10.55
2019-05-23T03:14:11.665Z,10.50
2019-05-23T03:16:45.508Z,10.42
2019-05-23T03:19:34.363Z,10.47
2019-05-23T03:22:31.673Z,10.53
2019-05-23T03:25:08.137Z,10.50
2019-05-23T03:27:44.744Z,10.56
2019-05-23T03:30:23.053Z,10.61
2019-05-23T03:33:00.238Z,10.61
2019-05-23T03:35:40.081Z,10.64
2019-05-23T03:38:13.977Z,10.65
2019-05-23T03:40:46.458Z,10.64
2019-05-23T03:43:20.708Z,10.65
2019-05-23T03:45:56.598Z,10.68
2019-05-23T03:48:31.528Z,10.69
2019-05-23T03:51:06.514Z,10.71
2019-05-23T03:53:38.494Z,10.67
2019-05-23T03:56:12.143Z,10.68
2019-05-23T03:58:48.380Z,10.72
2019-05-23T04:01:22.596Z,10.62
2019-05-23T04:03:56.841Z,10.59
2019-05-23T04:06:29.177Z,10.54
2019-05-23T04:09:01.791Z,10.67
2019-05-23T04:11:37.369Z,10.54
2019-05-23T04:14:10.575Z,10.41
2019-05-23T04:16:46.557Z,10.40
2019-05-23T04:19:19.809Z,10.39
2019-05-23T04:21:53.989Z,10.30
2019-05-23T04:24:26.074Z,10.27
2019-05-23T04:26:58.874Z,10.29
2019-05-23T04:29:32.427Z,10.29
2019-05-23T04:32:08.922Z,10.09
2019-05-23T04:34:40.348Z,10.13
2019-05-23T04:37:12.136Z,10.15
2019-05-23T04:39:45.842Z,10.11
2019-05-23T04:42:20.933Z,10.01
2019-05-23T04:44:54.851Z,10.04
2019-05-23T04:47:31.225Z,9.99
2019-05-23T04:50:06.474Z,9.96
2019-05-23T04:52:38.000Z,9.92
2019-05-23T04:55:13.075Z,9.83
2019-05-23T04:57:46.969Z,9.97
2019-05-23T05:00:22.335Z,9.98
2019-05-23T05:02:55.235Z,9.96
2019-05-23T05:05:28.827Z,9.86
2019-05-23T05:08:04.134Z,9.93
2019-05-23T05:10:38.709Z,10.00
2019-05-23T05:13:11.277Z,10.08
2019-05-23T05:15:47.087Z,10.10
2019-05-23T05:18:20.808Z,10.08
2019-05-23T05:20:53.156Z,10.03
2019-05-23T05:23:25.898Z,10.09
2019-05-23T05:26:01.150Z,10.01
2019-05-23T05:28:34.970Z,9.88
2019-05-23T05:31:08.118Z,9.83
2019-05-23T05:33:44.101Z,9.92
2019-05-23T05:36:15.749Z,9.93
2019-05-23T05:38:46.949Z,10.02
2019-05-23T05:41:21.675Z,9.72
2019-05-23T05:43:53.041Z,10.20
2019-05-23T05:46:26.603Z,10.04
2019-05-23T05:49:00.272Z,10.10
2019-05-23T05:51:32.617Z,10.07
2019-05-23T05:54:04.351Z,10.17
2019-05-23T05:56:37.107Z,10.13
2019-05-23T05:59:09.185Z,10.19
2019-05-23T06:01:43.772Z,10.15
2019-05-23T06:04:17.744Z,10.11
2019-05-23T06:07:12.091Z,10.02
2019-05-23T06:09:47.173Z,10.03
2019-05-23T06:12:19.636Z,10.28
2019-05-23T06:14:52.248Z,10.01
2019-05-23T06:17:25.828Z,10.07
2019-05-23T06:19:58.199Z,9.98
2019-05-23T06:22:32.931Z,10.07
2019-05-23T06:25:07.164Z,10.05
2019-05-23T06:27:41.301Z,9.98
2019-05-23T06:30:16.130Z,10.04
2019-05-23T06:32:51.234Z,10.06
2019-05-23T06:35:25.976Z,10.23
2019-05-23T06:37:58.164Z,10.14
2019-05-23T06:40:32.510Z,10.10
2019-05-23T06:43:05.218Z,10.10
2019-05-23T06:45:37.305Z,10.10
2019-05-23T06:48:14.963Z,10.18
2019-05-23T06:50:48.485Z,10.32
2019-05-23T06:53:22.577Z,10.33
2019-05-23T06:55:55.468Z,10.43
2019-05-23T06:58:29.448Z,10.46
2019-05-23T07:01:01.597Z,10.37
2019-05-23T07:03:42.739Z,10.39
2019-05-23T07:06:16.042Z,10.40
2019-05-23T07:08:49.429Z,10.47
2019-05-23T07:11:23.645Z,10.47
2019-05-23T07:13:57.537Z,10.31
2019-05-23T07:16:30.590Z,10.28
2019-05-23T07:19:05.088Z,10.39
2019-05-23T07:21:38.464Z,10.50
2019-05-23T07:24:10.692Z,10.52
2019-05-23T07:26:43.868Z,10.56
2019-05-23T07:29:16.562Z,10.54
2019-05-23T07:31:49.609Z,10.66
2019-05-23T07:34:22.660Z,10.74
2019-05-23T07:36:54.456Z,10.84
2019-05-23T07:39:28.582Z,10.88
2019-05-23T07:42:04.196Z,11.00
2019-05-23T07:44:48.270Z,11.08
2019-05-23T07:47:13.410Z,11.10
2019-05-23T07:49:45.646Z,11.01
2019-05-23T07:52:21.365Z,11.07
2019-05-23T07:55:00.356Z,10.72
2019-05-23T07:57:33.620Z,11.18
2019-05-23T08:00:09.755Z,11.12
2019-05-23T08:02:43.940Z,11.12
2019-05-23T08:05:17.463Z,11.02
2019-05-23T08:07:50.200Z,10.92
2019-05-23T08:10:33.025Z,11.11
2019-05-23T08:12:56.801Z,11.04
2019-05-23T08:15:29.068Z,11.07
2019-05-23T08:18:01.951Z,11.16
2019-05-23T08:20:35.792Z,11.26
2019-05-23T08:23:08.823Z,11.31
2019-05-23T08:25:40.949Z,11.29
2019-05-23T08:28:13.339Z,11.42
2019-05-23T08:30:46.864Z,11.67
2019-05-23T08:33:25.631Z,11.56
2019-05-23T08:35:59.108Z,11.75
2019-05-23T08:38:33.918Z,11.72
2019-05-23T08:41:07.877Z,11.92
2019-05-23T08:43:43.051Z,11.84
2019-05-23T08:46:17.638Z,11.90
2019-05-23T08:48:51.071Z,11.85
2019-05-23T08:51:26.492Z,11.84
2019-05-23T08:53:59.932Z,11.94
2019-05-23T08:56:31.161Z,11.88
2019-05-23T08:59:03.812Z,11.82
2019-05-23T09:01:38.443Z,11.83
2019-05-23T09:04:11.518Z,11.82
2019-05-23T09:06:44.602Z,11.82
2019-05-23T09:09:29.300Z,11.77
2019-05-23T09:11:54.207Z,11.81
2019-05-23T09:14:27.695Z,11.83
2019-05-23T09:17:02.038Z,11.91
2019-05-23T09:19:35.642Z,11.99
2019-05-23T09:22:09.048Z,11.97
2019-05-23T09:24:40.342Z,12.08
2019-05-23T09:27:14.060Z,12.25
2019-05-23T09:29:47.126Z,12.32
2019-05-23T09:32:20.251Z,12.29
2019-05-23T09:34:52.183Z,12.26
2019-05-23T09:37:26.360Z,12.17
2019-05-23T09:40:00.255Z,12.21
2019-05-23T09:42:32.186Z,12.17
2019-05-23T09:45:04.216Z,12.50
2019-05-23T09:47:39.814Z,12.83
2019-05-23T09:50:16.793Z,12.79
2019-05-23T09:52:50.316Z,12.82
2019-05-23T09:55:23.387Z,12.51
2019-05-23T09:57:56.315Z,12.58
2019-05-23T10:00:28.318Z,12.70
2019-05-23T10:03:02.061Z,12.87
2019-05-23T10:05:42.609Z,12.59
2019-05-23T10:08:10.967Z,12.51
2019-05-23T10:10:43.443Z,12.48
2019-05-23T10:13:15.663Z,12.68
2019-05-23T10:15:55.530Z,12.80
2019-05-23T10:18:29.207Z,12.76
2019-05-23T10:21:02.296Z,12.79
2019-05-23T10:23:36.981Z,12.95
2019-05-23T10:26:12.401Z,12.99
2019-05-23T10:28:45.749Z,13.24
2019-05-23T10:31:17.456Z,12.99
2019-05-23T10:33:51.578Z,13.37
2019-05-23T10:36:23.365Z,13.57
2019-05-23T10:38:56.513Z,13.70
2019-05-23T10:41:29.597Z,13.73
2019-05-23T10:44:02.386Z,13.75
2019-05-23T10:46:35.760Z,13.69
2019-05-23T10:49:10.782Z,13.76
2019-05-23T10:51:45.992Z,13.72
2019-05-23T10:54:18.620Z,13.84
2019-05-23T10:56:50.545Z,13.88
2019-05-23T10:59:23.899Z,13.89
2019-05-23T11:01:57.923Z,14.02
2019-05-23T11:04:31.511Z,13.98
2019-05-23T11:07:07.086Z,13.89
2019-05-23T11:09:40.246Z,13.84
2019-05-23T11:12:12.625Z,13.80
2019-05-23T11:14:45.393Z,13.87
2019-05-23T11:17:20.552Z,13.98
2019-05-23T11:19:52.885Z,14.06
2019-05-23T11:22:26.873Z,13.89
2019-05-23T11:25:01.204Z,13.80
2019-05-23T11:27:34.174Z,13.73
2019-05-23T11:30:07.410Z,13.89
2019-05-23T11:32:38.610Z,13.86
2019-05-23T11:35:14.455Z,14.09
2019-05-23T11:37:48.491Z,14.07
2019-05-23T11:40:22.677Z,14.07
2019-05-23T11:42:56.593Z,14.12
2019-05-23T11:45:30.981Z,14.21
2019-05-23T11:48:05.756Z,14.19
2019-05-23T11:50:37.637Z,14.19
2019-05-23T11:53:12.045Z,14.43
2019-05-23T11:55:43.944Z,14.00
2019-05-23T11:58:17.009Z,14.01
2019-05-23T12:01:33.540Z,14.14
2019-05-23T12:04:11.059Z,14.07
2019-05-23T12:07:02.896Z,14.22
2019-05-23T12:09:35.213Z,14.26
2019-05-23T12:12:07.969Z,14.30
2019-05-23T12:14:40.909Z,14.41
2019-05-23T12:17:15.530Z,14.42
2019-05-23T12:19:48.889Z,14.35
2019-05-23T12:22:25.558Z,14.34
2019-05-23T12:24:58.909Z,14.52
2019-05-23T12:27:30.912Z,14.55
2019-05-23T12:30:05.473Z,14.45
2019-05-23T12:32:37.828Z,14.45
2019-05-23T12:35:12.134Z,14.49
2019-05-23T12:37:47.982Z,14.63
2019-05-23T12:40:20.233Z,14.55
2019-05-23T12:42:55.652Z,14.67
2019-05-23T12:45:30.514Z,14.76
2019-05-23T12:48:08.522Z,14.94
2019-05-23T12:50:45.574Z,14.99
2019-05-23T12:53:18.253Z,15.07
2019-05-23T12:55:50.013Z,15.07
2019-05-23T12:58:24.097Z,15.25
2019-05-23T13:00:59.281Z,15.02
2019-05-23T13:03:32.041Z,15.04
2019-05-23T13:06:06.404Z,15.06
2019-05-23T13:08:39.452Z,15.00
2019-05-23T13:11:13.189Z,14.98
2019-05-23T13:13:48.185Z,14.99
2019-05-23T13:16:20.383Z,15.07
2019-05-23T13:18:52.121Z,15.20
2019-05-23T13:21:27.613Z,15.18
2019-05-23T13:23:59.115Z,15.10
2019-05-23T13:26:33.950Z,15.09
2019-05-23T13:29:07.323Z,15.06
2019-05-23T13:31:41.076Z,15.13
2019-05-23T13:34:12.330Z,15.22
2019-05-23T13:36:47.826Z,15.30
2019-05-23T13:39:22.326Z,15.19
2019-05-23T13:41:57.832Z,15.34
2019-05-23T13:44:35.236Z,15.39
2019-05-23T13:47:05.221Z,15.42
2019-05-23T13:49:37.284Z,15.53
2019-05-23T13:52:12.721Z,15.31
2019-05-23T13:54:45.204Z,15.42
2019-05-23T13:57:17.481Z,15.36
2019-05-23T13:59:51.353Z,15.44
2019-05-23T14:02:26.965Z,15.52
2019-05-23T14:04:59.164Z,15.57
2019-05-23T14:07:33.903Z,15.39
2019-05-23T14:10:06.222Z,15.43
2019-05-23T14:12:39.047Z,15.35
2019-05-23T14:15:12.511Z,15.22
2019-05-23T14:17:46.533Z,15.20
2019-05-23T14:20:22.249Z,15.24
2019-05-23T14:22:59.591Z,15.05
2019-05-23T14:25:32.657Z,15.14
2019-05-23T14:28:07.647Z,15.27
2019-05-23T14:30:53.285Z,15.35
2019-05-23T14:33:49.196Z,15.47
2019-05-23T14:36:26.142Z,15.50
2019-05-23T14:39:00.783Z,15.39
2019-05-23T14:41:45.045Z,15.51
2019-05-23T14:44:14.521Z,15.61
2019-05-23T14:47:06.093Z,15.55
2019-05-23T14:49:42.473Z,15.46
2019-05-23T14:52:22.974Z,15.42
2019-05-23T14:54:59.290Z,15.54
2019-05-23T14:57:33.421Z,15.44
2019-05-23T15:00:06.239Z,15.39
2019-05-23T15:02:39.817Z,15.34
2019-05-23T15:05:11.789Z,15.31
2019-05-23T15:07:46.824Z,15.43
2019-05-23T15:10:21.208Z,15.62
2019-05-23T15:12:52.729Z,15.67
2019-05-23T15:15:23.956Z,15.77
2019-05-23T15:17:57.677Z,15.74
2019-05-23T15:20:31.856Z,15.81
2019-05-23T15:23:05.343Z,15.73
2019-05-23T15:25:39.938Z,15.86
2019-05-23T15:28:12.721Z,15.85
2019-05-23T15:30:45.718Z,15.78
2019-05-23T15:33:17.791Z,15.58
2019-05-23T15:35:54.177Z,15.62
2019-05-23T15:38:28.410Z,15.51
2019-05-23T15:41:07.336Z,15.50
2019-05-23T15:43:41.001Z,15.48
2019-05-23T15:46:14.336Z,15.59
2019-05-23T15:48:46.656Z,15.59
2019-05-23T15:51:30.699Z,15.19
2019-05-23T15:54:24.472Z,15.62
2019-05-23T15:57:22.408Z,15.62
2019-05-23T16:00:00.836Z,15.62
2019-05-23T16:02:47.390Z,15.40
2019-05-23T16:05:22.389Z,15.34
2019-05-23T16:07:56.034Z,15.50
2019-05-23T16:10:29.600Z,15.53
2019-05-23T16:13:00.914Z,15.53
2019-05-23T16:15:33.881Z,15.45
2019-05-23T16:18:06.488Z,15.53
2019-05-23T16:20:40.035Z,15.47
2019-05-23T16:23:19.569Z,15.36
2019-05-23T16:26:02.085Z,15.46
2019-05-23T16:28:51.405Z,15.41
2019-05-23T16:31:41.560Z,15.28
2019-05-23T16:34:31.782Z,15.24
2019-05-23T16:37:14.427Z,15.04
2019-05-23T16:39:51.091Z,15.10
2019-05-23T16:42:40.656Z,15.19
2019-05-23T16:45:13.392Z,15.08
2019-05-23T16:48:02.969Z,15.09
2019-05-23T16:50:52.556Z,15.08
2019-05-23T16:53:24.851Z,15.08
2019-05-23T16:56:34.490Z,15.02
2019-05-23T16:59:20.401Z,15.09
2019-05-23T17:02:14.189Z,15.22
2019-05-23T17:05:20.480Z,15.21
2019-05-23T17:08:03.945Z,15.18
2019-05-23T17:10:51.081Z,15.06
2019-05-23T17:13:50.559Z,15.08
2019-05-23T17:16:35.101Z,15.08
2019-05-23T17:22:45.197Z,14.96
2019-05-23T17:25:52.233Z,14.87
2019-05-23T17:28:30.727Z,13.07
2019-05-23T17:31:08.597Z,14.83
2019-05-23T17:33:41.640Z,14.77
2019-05-23T17:36:14.356Z,14.76
2019-05-23T17:38:47.272Z,14.80
2019-05-23T17:41:21.004Z,14.86
2019-05-23T17:43:53.283Z,14.70
2019-05-23T17:46:26.373Z,14.63
2019-05-23T17:48:59.238Z,14.67
2019-05-23T17:51:32.622Z,14.64
2019-05-23T17:54:06.541Z,14.59
2019-05-23T17:56:38.595Z,14.58
2019-05-23T17:59:12.805Z,14.59
2019-05-23T18:01:45.553Z,14.53
2019-05-23T18:04:17.624Z,14.45
2019-05-23T18:06:51.027Z,14.35
2019-05-23T18:09:23.859Z,14.33
2019-05-23T18:11:56.250Z,14.26
2019-05-23T18:14:28.563Z,14.12
2019-05-23T18:17:03.637Z,14.06
2019-05-23T18:19:39.056Z,14.05
2019-05-23T18:22:14.678Z,14.03
2019-05-23T18:24:47.554Z,14.10
2019-05-23T18:27:20.756Z,14.05
2019-05-23T18:29:54.567Z,14.00
2019-05-23T18:32:29.551Z,13.92
2019-05-23T18:35:03.096Z,13.76
2019-05-23T18:37:37.384Z,13.72
2019-05-23T18:40:11.264Z,13.61
2019-05-23T18:42:46.600Z,13.54
2019-05-23T18:45:21.180Z,13.55
2019-05-23T18:47:53.640Z,13.53
2019-05-23T18:50:26.629Z,13.48
2019-05-23T18:53:00.661Z,13.49
2019-05-23T18:55:32.793Z,13.47
2019-05-23T18:58:05.748Z,13.37
2019-05-23T19:01:00.023Z,13.33
2019-05-23T19:03:31.896Z,13.28
2019-05-23T19:06:05.732Z,13.28
2019-05-23T19:08:38.675Z,13.35
2019-05-23T19:11:20.955Z,13.34
2019-05-23T19:13:47.873Z,13.24
2019-05-23T19:16:20.931Z,13.03
2019-05-23T19:19:10.570Z,12.97
2019-05-23T19:21:44.229Z,12.89
2019-05-23T19:24:17.928Z,12.89
2019-05-23T19:26:51.612Z,12.80
2019-05-23T19:29:24.986Z,12.55
2019-05-23T19:31:57.097Z,12.30
2019-05-23T19:34:30.740Z,12.48
2019-05-23T19:37:02.810Z,12.49
2019-05-23T19:39:38.367Z,12.55
2019-05-23T19:42:13.179Z,12.60
2019-05-23T19:44:46.894Z,12.67
2019-05-23T19:47:18.491Z,12.72
2019-05-23T19:49:51.996Z,12.73
2019-05-23T19:52:25.641Z,12.83
2019-05-23T19:55:00.631Z,12.84
2019-05-23T19:57:33.450Z,12.86
2019-05-23T20:00:08.931Z,12.85
2019-05-23T20:02:50.822Z,12.77
2019-05-23T20:05:28.728Z,12.76
2019-05-23T20:08:00.092Z,12.72
2019-05-23T20:10:33.377Z,12.72
2019-05-23T20:13:06.638Z,12.66
2019-05-23T20:15:38.261Z,12.69
2019-05-23T20:18:14.504Z,12.71
2019-05-23T20:20:48.051Z,12.67
2019-05-23T20:23:22.241Z,12.71
2019-05-23T20:25:54.183Z,12.60
2019-05-23T20:28:28.912Z,12.56
2019-05-23T20:31:04.237Z,12.54
2019-05-23T20:33:37.738Z,12.52
2019-05-23T20:36:13.263Z,12.50
2019-05-23T20:38:45.679Z,12.56
2019-05-23T20:41:19.091Z,12.58
2019-05-23T20:43:51.227Z,12.54
2019-05-23T20:46:25.993Z,12.51
2019-05-23T20:48:59.432Z,12.51
2019-05-23T20:51:35.287Z,12.53
2019-05-23T20:54:10.810Z,12.49
2019-05-23T20:56:45.042Z,12.37
2019-05-23T20:59:17.235Z,12.38
2019-05-23T21:01:52.049Z,12.39
2019-05-23T21:04:24.578Z,12.27
2019-05-23T21:06:57.520Z,12.31
2019-05-23T21:09:29.865Z,12.33
2019-05-23T21:12:02.551Z,12.33
2019-05-23T21:14:35.309Z,12.29
2019-05-23T21:17:09.856Z,12.26
2019-05-23T21:19:42.744Z,12.27
2019-05-23T21:22:14.599Z,12.25
2019-05-23T21:24:48.350Z,12.26
2019-05-23T21:27:21.681Z,12.20
2019-05-23T21:29:53.340Z,12.17
2019-05-23T21:32:26.688Z,12.12
2019-05-23T21:35:00.381Z,11.96
2019-05-23T21:37:33.384Z,11.87
2019-05-23T21:40:10.027Z,11.89
2019-05-23T21:42:47.793Z,11.92
2019-05-23T21:45:15.328Z,11.99
2019-05-23T21:47:48.505Z,11.97
2019-05-23T21:50:21.506Z,11.97
2019-05-23T21:52:53.462Z,11.87
2019-05-23T21:55:36.465Z,11.87
2019-05-23T21:58:10.846Z,11.88
2019-05-23T22:01:23.793Z,11.84
2019-05-23T22:04:33.789Z,11.86
2019-05-23T22:07:07.668Z,11.82
2019-05-23T22:09:38.973Z,11.67
2019-05-23T22:12:14.743Z,11.58
2019-05-23T22:14:49.219Z,11.53
2019-05-23T22:17:23.367Z,11.45
2019-05-23T22:19:54.870Z,11.44
2019-05-23T22:22:27.783Z,11.43
2019-05-23T22:25:00.507Z,11.43
2019-05-23T22:27:34.708Z,11.39
2019-05-23T22:30:09.204Z,11.36
2019-05-23T22:32:41.468Z,11.32
2019-05-23T22:35:17.319Z,11.31
2019-05-23T22:37:48.823Z,11.27
2019-05-23T22:40:21.934Z,11.20
2019-05-23T22:42:54.761Z,11.16
2019-05-23T22:45:29.256Z,11.13
2019-05-23T22:48:01.583Z,11.10
2019-05-23T22:50:32.797Z,11.03
2019-05-23T22:53:05.789Z,11.09
2019-05-23T22:55:38.836Z,11.00
2019-05-23T22:58:11.827Z,11.04
2019-05-23T23:00:46.490Z,10.99
2019-05-23T23:03:17.698Z,10.93
2019-05-23T23:05:51.766Z,10.90
2019-05-23T23:08:23.869Z,10.90
2019-05-23T23:10:56.750Z,10.80
2019-05-23T23:13:38.055Z,10.84
2019-05-23T23:16:03.097Z,10.82
2019-05-23T23:18:37.545Z,10.85
2019-05-23T23:21:13.829Z,10.80
2019-05-23T23:23:48.089Z,10.79
2019-05-23T23:26:21.071Z,10.87
2019-05-23T23:28:54.131Z,10.87
2019-05-23T23:31:27.947Z,10.92
2019-05-23T23:34:02.019Z,10.92
2019-05-23T23:36:36.445Z,10.84
2019-05-23T23:39:09.774Z,10.88
2019-05-23T23:41:42.530Z,10.89
2019-05-23T23:44:14.328Z,10.88
2019-05-23T23:47:06.433Z,10.87
2019-05-23T23:49:57.427Z,10.79
2019-05-23T23:52:49.729Z,10.78
2019-05-23T23:55:40.971Z,10.71
2019-05-23T23:58:12.381Z,10.54
